Time;durP1;ratioP1;P1;durP2;ratioP2;P2;SDS_P1;SDS_P2;PMS_P1;PMS_P2;Temp;Humidity;BMP_temperature;BMP_pressure;BME280_temperature;BME280_humidity;BME280_pressure;Samples;Min_cycle;Max_cycle;Signal;HPM_P1;HPM_P2
2024/01/20 00:02:09;0.00;0.00;0.62;0.00;0.00;0.62;3.50;3.20;;;18.70;20.40;;;;;;2264517;61;20403;-55
2024/01/20 00:04:53;0.00;0.00;0.62;0.00;0.00;0.62;2.93;2.60;;;18.70;20.50;;;;;;2264853;61;21080;-54
2024/01/20 00:07:38;0.00;0.00;0.62;0.00;0.00;0.62;2.80;2.40;;;18.70;20.50;;;;;;2264464;61;20364;-56
2024/01/20 00:10:22;0.00;0.00;0.62;0.00;0.00;0.62;4.27;3.07;;;18.70;20.50;;;;;;2264652;61;20375;-54
2024/01/20 00:13:07;0.00;0.00;0.62;0.00;0.00;0.62;3.20;2.60;;;18.70;20.50;;;;;;2264259;61;20919;-53
2024/01/20 00:15:53;0.00;0.00;0.62;0.00;0.00;0.62;3.90;2.80;;;18.70;20.50;;;;;;2264648;61;20364;-51
2024/01/20 00:18:37;0.00;0.00;0.62;0.00;0.00;0.62;3.20;2.53;;;18.70;20.50;;;;;;2264675;61;20368;-54
2024/01/20 00:21:22;0.00;0.00;0.62;0.00;0.00;0.62;3.30;2.77;;;18.70;20.50;;;;;;2264578;61;20387;-52
2024/01/20 00:24:07;0.00;0.00;0.62;0.00;0.00;0.62;3.60;2.93;;;18.70;20.50;;;;;;2264653;61;20422;-53
2024/01/20 00:26:51;0.00;0.00;0.62;0.00;0.00;0.62;3.50;2.83;;;18.70;20.40;;;;;;2265000;61;20410;-58
2024/01/20 00:29:36;0.00;0.00;0.62;0.00;0.00;0.62;3.00;2.50;;;18.60;20.40;;;;;;2264752;61;20407;-53
2024/01/20 00:32:22;0.00;0.00;0.62;0.00;0.00;0.62;2.80;2.50;;;18.70;20.40;;;;;;2264189;61;20371;-51
2024/01/20 00:35:08;0.00;0.00;0.62;0.00;0.00;0.62;3.70;2.77;;;18.70;20.40;;;;;;2264545;61;20399;-55
2024/01/20 00:37:53;0.00;0.00;0.62;0.00;0.00;0.62;3.30;3.00;;;18.60;20.40;;;;;;2264799;61;20434;-55
2024/01/20 00:40:38;0.00;0.00;0.62;0.00;0.00;0.62;4.83;2.90;;;18.70;20.40;;;;;;2264894;61;20439;-54
2024/01/20 00:43:22;0.00;0.00;0.62;0.00;0.00;0.62;3.27;2.80;;;18.70;20.50;;;;;;2264188;61;20372;-57
2024/01/20 00:46:07;0.00;0.00;0.62;0.00;0.00;0.62;4.50;3.43;;;18.70;20.50;;;;;;2264397;61;20422;-56
2024/01/20 00:48:53;0.00;0.00;0.62;0.00;0.00;0.62;4.30;2.80;;;18.70;20.50;;;;;;2264767;61;20419;-55
2024/01/20 00:51:37;0.00;0.00;0.62;0.00;0.00;0.62;3.60;2.87;;;18.60;20.40;;;;;;2264285;61;20767;-56
2024/01/20 00:54:22;0.00;0.00;0.62;0.00;0.00;0.62;3.20;2.80;;;18.60;20.40;;;;;;2264544;61;20419;-53
2024/01/20 00:57:06;0.00;0.00;0.62;0.00;0.00;0.62;3.90;3.10;;;18.60;20.40;;;;;;2264477;61;20368;-54
2024/01/20 00:59:51;0.00;0.00;0.62;0.00;0.00;0.62;4.63;3.60;;;18.60;20.40;;;;;;2264587;61;20456;-55
2024/01/20 01:02:35;0.00;0.00;0.62;0.00;0.00;0.62;3.83;3.13;;;18.60;20.40;;;;;;2264206;61;20359;-56
2024/01/20 01:05:21;0.00;0.00;0.62;0.00;0.00;0.62;3.80;2.90;;;18.60;20.40;;;;;;2264675;61;20838;-54
2024/01/20 01:08:06;0.00;0.00;0.62;0.00;0.00;0.62;2.90;2.53;;;18.60;20.40;;;;;;2264589;61;20388;-53
2024/01/20 01:10:54;0.00;0.00;0.62;0.00;0.00;0.62;3.20;2.70;;;18.60;20.40;;;;;;2264763;61;20418;-56
2024/01/20 01:13:39;0.00;0.00;0.62;0.00;0.00;0.62;3.50;2.90;;;18.60;20.40;;;;;;2264233;61;20779;-49
2024/01/20 01:16:23;0.00;0.00;0.62;0.00;0.00;0.62;3.30;2.40;;;18.60;20.40;;;;;;2264468;61;20368;-55
2024/01/20 01:19:08;0.00;0.00;0.62;0.00;0.00;0.62;2.93;2.63;;;18.60;20.40;;;;;;2264410;61;20394;-52
2024/01/20 01:21:54;0.00;0.00;0.62;0.00;0.00;0.62;4.40;2.67;;;18.60;20.40;;;;;;2263980;61;20401;-55
2024/01/20 01:24:38;0.00;0.00;0.62;0.00;0.00;0.62;3.03;2.70;;;18.60;20.40;;;;;;2264233;61;20521;-55
2024/01/20 01:27:23;0.00;0.00;0.62;0.00;0.00;0.62;3.30;2.63;;;18.60;20.40;;;;;;2264688;61;20368;-55
2024/01/20 01:30:10;0.00;0.00;0.62;0.00;0.00;0.62;3.57;2.87;;;18.60;20.40;;;;;;2263980;61;20372;-52
2024/01/20 01:32:55;0.00;0.00;0.62;0.00;0.00;0.62;3.40;3.00;;;18.60;20.40;;;;;;2264165;61;20368;-55
2024/01/20 01:35:39;0.00;0.00;0.62;0.00;0.00;0.62;4.40;3.07;;;18.60;20.40;;;;;;2264272;61;20371;-56
2024/01/20 01:38:25;0.00;0.00;0.62;0.00;0.00;0.62;3.27;2.70;;;18.60;20.40;;;;;;2264550;61;20710;-58
2024/01/20 01:41:10;0.00;0.00;0.62;0.00;0.00;0.62;2.93;2.27;;;18.60;20.40;;;;;;2264355;61;20364;-54
2024/01/20 01:43:54;0.00;0.00;0.62;0.00;0.00;0.62;3.63;2.50;;;18.60;20.40;;;;;;2263658;61;20438;-59
2024/01/20 01:46:39;0.00;0.00;0.62;0.00;0.00;0.62;2.80;2.13;;;18.60;20.50;;;;;;2264288;61;20363;-55
2024/01/20 01:49:25;0.00;0.00;0.62;0.00;0.00;0.62;3.60;3.00;;;18.60;20.50;;;;;;2264411;61;20395;-54
2024/01/20 01:52:10;0.00;0.00;0.62;0.00;0.00;0.62;4.13;3.07;;;18.60;20.50;;;;;;2263718;61;20771;-59
2024/01/20 01:54:57;0.00;0.00;0.62;0.00;0.00;0.62;4.00;2.90;;;18.60;20.50;;;;;;2264447;61;20419;-54
2024/01/20 01:57:42;0.00;0.00;0.62;0.00;0.00;0.62;3.53;2.97;;;18.50;20.40;;;;;;2264428;61;20394;-58
2024/01/20 02:00:28;0.00;0.00;0.62;0.00;0.00;0.62;3.33;2.90;;;18.50;20.40;;;;;;2264100;61;20756;-55
2024/01/20 02:03:13;0.00;0.00;0.62;0.00;0.00;0.62;4.03;2.90;;;18.50;20.40;;;;;;2264042;61;20409;-53
2024/01/20 02:05:58;0.00;0.00;0.62;0.00;0.00;0.62;4.30;2.73;;;18.50;20.40;;;;;;2264044;61;20363;-56
2024/01/20 02:08:43;0.00;0.00;0.62;0.00;0.00;0.62;2.93;2.40;;;18.50;20.40;;;;;;2264117;61;20407;-56
2024/01/20 02:11:29;0.00;0.00;0.62;0.00;0.00;0.62;3.97;3.13;;;18.50;20.40;;;;;;2260705;61;20364;-53
2024/01/20 02:14:15;0.00;0.00;0.62;0.00;0.00;0.62;3.13;2.80;;;18.50;20.40;;;;;;2255884;61;20897;-56
2024/01/20 02:16:59;0.00;0.00;0.62;0.00;0.00;0.62;3.40;2.63;;;18.50;20.40;;;;;;2259969;61;20816;-54
2024/01/20 02:19:45;0.00;0.00;0.62;0.00;0.00;0.62;3.43;2.60;;;18.50;20.40;;;;;;2260262;61;20444;-56
2024/01/20 02:22:30;0.00;0.00;0.62;0.00;0.00;0.62;3.27;2.87;;;18.50;20.40;;;;;;2259829;61;20412;-52
2024/01/20 02:25:15;0.00;0.00;0.62;0.00;0.00;0.62;3.47;2.83;;;18.50;20.40;;;;;;2260074;61;20434;-57
2024/01/20 02:27:59;0.00;0.00;0.62;0.00;0.00;0.62;3.67;2.70;;;18.50;20.40;;;;;;2260172;61;20381;-51
2024/01/20 02:30:46;0.00;0.00;0.62;0.00;0.00;0.62;3.97;2.77;;;18.50;20.40;;;;;;2260107;61;20455;-55
2024/01/20 02:33:31;0.00;0.00;0.62;0.00;0.00;0.62;3.67;2.73;;;18.50;20.40;;;;;;2260532;61;20377;-53
2024/01/20 02:36:15;0.00;0.00;0.62;0.00;0.00;0.62;3.03;2.30;;;18.50;20.40;;;;;;2260339;61;20396;-53
2024/01/20 02:39:01;0.00;0.00;0.62;0.00;0.00;0.62;3.07;2.37;;;18.50;20.40;;;;;;2261033;61;20391;-53
2024/01/20 02:41:47;0.00;0.00;0.62;0.00;0.00;0.62;4.10;2.90;;;18.50;20.40;;;;;;2260499;61;20368;-57
2024/01/20 02:44:32;0.00;0.00;0.62;0.00;0.00;0.62;4.27;2.90;;;18.50;20.40;;;;;;2260972;61;20412;-55
2024/01/20 02:47:17;0.00;0.00;0.62;0.00;0.00;0.62;3.07;2.53;;;18.50;20.40;;;;;;2260841;61;20368;-56
2024/01/20 02:50:02;0.00;0.00;0.62;0.00;0.00;0.62;3.30;2.60;;;18.50;20.40;;;;;;2260633;61;20396;-54
2024/01/20 02:52:46;0.00;0.00;0.62;0.00;0.00;0.62;3.70;2.70;;;18.40;20.30;;;;;;2259937;61;20410;-57
2024/01/20 02:55:32;0.00;0.00;0.62;0.00;0.00;0.62;2.70;2.50;;;18.50;20.40;;;;;;2260168;61;20384;-55
2024/01/20 02:58:17;0.00;0.00;0.62;0.00;0.00;0.62;4.33;3.20;;;18.50;20.40;;;;;;2260988;61;20383;-54
2024/01/20 03:01:02;0.00;0.00;0.62;0.00;0.00;0.62;3.70;2.90;;;18.50;20.40;;;;;;2260839;61;20928;-55
2024/01/20 03:03:47;0.00;0.00;0.62;0.00;0.00;0.62;3.13;2.23;;;18.50;20.40;;;;;;2260573;61;20376;-55
2024/01/20 03:06:32;0.00;0.00;0.62;0.00;0.00;0.62;3.67;2.70;;;18.50;20.40;;;;;;2260658;61;20364;-56
2024/01/20 03:09:17;0.00;0.00;0.62;0.00;0.00;0.62;4.73;3.27;;;18.40;20.30;;;;;;2260712;61;20392;-55
2024/01/20 03:12:03;0.00;0.00;0.62;0.00;0.00;0.62;3.63;2.63;;;18.40;20.40;;;;;;2260500;61;20465;-56
2024/01/20 03:14:48;0.00;0.00;0.62;0.00;0.00;0.62;5.10;2.87;;;18.40;20.30;;;;;;2260504;61;20393;-56
2024/01/20 03:17:32;0.00;0.00;0.62;0.00;0.00;0.62;3.03;2.57;;;18.40;20.30;;;;;;2260941;61;20896;-57
2024/01/20 03:20:17;0.00;0.00;0.62;0.00;0.00;0.62;3.30;2.40;;;18.40;20.40;;;;;;2260610;61;20361;-53
2024/01/20 03:23:01;0.00;0.00;0.62;0.00;0.00;0.62;3.73;3.20;;;18.40;20.40;;;;;;2260234;61;20453;-53
2024/01/20 03:25:46;0.00;0.00;0.62;0.00;0.00;0.62;3.07;2.40;;;18.40;20.40;;;;;;2260782;61;20381;-57
2024/01/20 03:28:32;0.00;0.00;0.62;0.00;0.00;0.62;3.43;2.90;;;18.40;20.40;;;;;;2260269;61;20983;-54
2024/01/20 03:31:17;0.00;0.00;0.62;0.00;0.00;0.62;3.30;2.67;;;18.40;20.40;;;;;;2260629;61;20408;-55
2024/01/20 03:34:01;0.00;0.00;0.62;0.00;0.00;0.62;3.90;2.47;;;18.40;20.40;;;;;;2260375;61;20848;-57
2024/01/20 03:36:46;0.00;0.00;0.62;0.00;0.00;0.62;3.10;2.60;;;18.40;20.40;;;;;;2260512;61;20372;-53
2024/01/20 03:39:31;0.00;0.00;0.62;0.00;0.00;0.62;3.73;3.27;;;18.40;20.40;;;;;;2260790;61;20377;-58
2024/01/20 03:42:15;0.00;0.00;0.62;0.00;0.00;0.62;4.30;2.70;;;18.40;20.40;;;;;;2260265;61;20368;-52
2024/01/20 03:45:02;0.00;0.00;0.62;0.00;0.00;0.62;4.00;3.00;;;18.40;20.40;;;;;;2260573;61;20382;-55
2024/01/20 03:47:47;0.00;0.00;0.62;0.00;0.00;0.62;3.60;2.40;;;18.40;20.40;;;;;;2260774;61;20419;-54
2024/01/20 03:50:31;0.00;0.00;0.62;0.00;0.00;0.62;3.13;2.73;;;18.40;20.40;;;;;;2260619;61;20399;-53
2024/01/20 03:53:16;0.00;0.00;0.62;0.00;0.00;0.62;3.43;2.70;;;18.40;20.40;;;;;;2260251;61;20439;-58
2024/01/20 03:56:01;0.00;0.00;0.62;0.00;0.00;0.62;3.53;2.57;;;18.40;20.40;;;;;;2260888;61;20369;-56
2024/01/20 03:58:46;0.00;0.00;0.62;0.00;0.00;0.62;3.00;2.67;;;18.30;20.90;;;;;;2260672;61;20877;-56
2024/01/20 04:01:31;0.00;0.00;0.62;0.00;0.00;0.62;5.93;2.53;;;18.40;20.40;;;;;;2260813;61;20413;-56
2024/01/20 04:04:16;0.00;0.00;0.62;0.00;0.00;0.62;3.40;3.00;;;18.40;20.40;;;;;;2277950;40;20435;-55
2024/01/20 04:07:01;0.00;0.00;0.62;0.00;0.00;0.62;3.63;2.70;;;18.40;20.40;;;;;;2264807;61;20422;-57
2024/01/20 04:09:45;0.00;0.00;0.62;0.00;0.00;0.62;4.07;2.83;;;18.40;20.40;;;;;;2264666;61;20790;-55
2024/01/20 04:12:30;0.00;0.00;0.62;0.00;0.00;0.62;4.17;2.97;;;18.40;20.40;;;;;;2264078;61;20368;-55
2024/01/20 04:15:15;0.00;0.00;0.62;0.00;0.00;0.62;3.70;3.10;;;18.40;20.40;;;;;;2264494;61;20384;-52
2024/01/20 04:18:01;0.00;0.00;0.62;0.00;0.00;0.62;4.00;3.00;;;18.40;21.00;;;;;;2264750;61;20905;-55
2024/01/20 04:20:45;0.00;0.00;0.62;0.00;0.00;0.62;3.00;2.70;;;18.30;20.40;;;;;;2264774;61;20410;-53
2024/01/20 04:23:30;0.00;0.00;0.62;0.00;0.00;0.62;3.50;2.40;;;18.40;20.50;;;;;;2264541;61;20383;-54
2024/01/20 04:26:16;0.00;0.00;0.62;0.00;0.00;0.62;3.57;2.90;;;18.40;20.40;;;;;;2264538;61;20403;-53
2024/01/20 04:29:00;0.00;0.00;0.62;0.00;0.00;0.62;3.50;2.93;;;18.40;20.40;;;;;;2266555;61;20380;-56
2024/01/20 04:31:45;0.00;0.00;0.62;0.00;0.00;0.62;3.60;3.17;;;18.30;20.40;;;;;;2263953;61;20431;-53
2024/01/20 04:34:31;0.00;0.00;0.62;0.00;0.00;0.62;3.77;2.70;;;18.40;20.40;;;;;;2264650;61;20388;-51
2024/01/20 04:37:15;0.00;0.00;0.62;0.00;0.00;0.62;2.90;2.60;;;18.30;20.40;;;;;;2264792;61;20510;-52
2024/01/20 04:40:00;0.00;0.00;0.62;0.00;0.00;0.62;3.73;2.87;;;18.30;20.40;;;;;;2264611;61;20384;-55
2024/01/20 04:42:45;0.00;0.00;0.62;0.00;0.00;0.62;4.17;2.70;;;18.30;20.40;;;;;;2264063;61;20364;-51
2024/01/20 04:45:29;0.00;0.00;0.62;0.00;0.00;0.62;4.70;3.40;;;18.40;20.40;;;;;;2264510;61;20785;-53
2024/01/20 04:48:16;0.00;0.00;0.62;0.00;0.00;0.62;4.27;3.30;;;18.30;20.40;;;;;;2264595;61;20495;-56
2024/01/20 04:51:02;0.00;0.00;0.62;0.00;0.00;0.62;3.37;2.73;;;18.30;20.40;;;;;;2264304;61;20780;-54
2024/01/20 04:53:47;0.00;0.00;0.62;0.00;0.00;0.62;3.93;3.03;;;18.30;20.40;;;;;;2264028;61;20970;-53
2024/01/20 04:56:31;0.00;0.00;0.62;0.00;0.00;0.62;3.27;2.73;;;18.30;20.30;;;;;;2264447;61;20430;-51
2024/01/20 04:59:16;0.00;0.00;0.62;0.00;0.00;0.62;3.50;2.80;;;18.30;20.40;;;;;;2264289;61;20603;-52
2024/01/20 05:02:00;0.00;0.00;0.62;0.00;0.00;0.62;3.87;2.70;;;18.30;20.40;;;;;;2264167;61;20788;-54
2024/01/20 05:04:45;0.00;0.00;0.62;0.00;0.00;0.62;3.50;2.53;;;18.30;20.40;;;;;;2263777;61;20380;-58
2024/01/20 05:07:31;0.00;0.00;0.62;0.00;0.00;0.62;3.27;2.83;;;18.30;20.40;;;;;;2264509;61;20414;-55
2024/01/20 05:10:16;0.00;0.00;0.62;0.00;0.00;0.62;3.50;3.20;;;18.30;20.40;;;;;;2264479;61;20417;-58
2024/01/20 05:13:00;0.00;0.00;0.62;0.00;0.00;0.62;3.63;2.63;;;18.30;20.40;;;;;;2264073;61;20404;-55
2024/01/20 05:15:45;0.00;0.00;0.62;0.00;0.00;0.62;3.73;3.17;;;18.30;20.40;;;;;;2264356;61;20414;-51
2024/01/20 05:18:29;0.00;0.00;0.62;0.00;0.00;0.62;3.30;2.80;;;18.30;20.40;;;;;;2264736;61;20434;-53
2024/01/20 05:21:14;0.00;0.00;0.62;0.00;0.00;0.62;2.77;2.40;;;18.30;20.40;;;;;;2264303;61;20364;-54
2024/01/20 05:24:00;0.00;0.00;0.62;0.00;0.00;0.62;2.83;1.80;;;18.30;20.40;;;;;;2264452;61;20423;-52
2024/01/20 05:26:45;0.00;0.00;0.62;0.00;0.00;0.62;3.70;3.13;;;18.30;20.40;;;;;;2264559;61;20408;-55
2024/01/20 05:29:29;0.00;0.00;0.62;0.00;0.00;0.62;3.57;2.67;;;18.30;20.40;;;;;;2264433;61;20396;-56
2024/01/20 05:32:15;0.00;0.00;0.62;0.00;0.00;0.62;2.50;2.00;;;18.30;20.40;;;;;;2263917;61;20368;-56
2024/01/20 05:35:00;0.00;0.00;0.62;0.00;0.00;0.62;3.40;2.50;;;18.30;20.40;;;;;;2264437;61;20912;-56
2024/01/20 05:37:44;0.00;0.00;0.62;0.00;0.00;0.62;3.10;2.50;;;18.30;20.40;;;;;;2264372;61;20399;-54
2024/01/20 05:40:30;0.00;0.00;0.62;0.00;0.00;0.62;2.87;2.17;;;18.30;20.40;;;;;;2264587;61;20376;-52
2024/01/20 05:43:15;0.00;0.00;0.62;0.00;0.00;0.62;3.20;2.47;;;18.30;20.40;;;;;;2263298;61;20388;-54
2024/01/20 05:46:03;0.00;0.00;0.62;0.00;0.00;0.62;2.80;2.30;;;18.30;20.40;;;;;;2264391;61;20375;-57
2024/01/20 05:48:48;0.00;0.00;0.62;0.00;0.00;0.62;3.40;2.60;;;18.30;20.40;;;;;;2264455;61;20384;-56
2024/01/20 05:51:33;0.00;0.00;0.62;0.00;0.00;0.62;3.37;2.83;;;18.30;20.40;;;;;;2264187;61;20367;-55
2024/01/20 05:54:18;0.00;0.00;0.62;0.00;0.00;0.62;3.03;2.10;;;18.30;20.40;;;;;;2264400;61;20388;-56
2024/01/20 05:57:04;0.00;0.00;0.62;0.00;0.00;0.62;2.87;2.10;;;18.30;20.40;;;;;;2264301;61;20364;-54
2024/01/20 05:59:49;0.00;0.00;0.62;0.00;0.00;0.62;3.10;2.57;;;18.30;20.40;;;;;;2264214;61;20360;-55
2024/01/20 06:02:33;0.00;0.00;0.62;0.00;0.00;0.62;2.50;2.00;;;18.30;20.40;;;;;;2264011;61;20904;-53
2024/01/20 06:05:18;0.00;0.00;0.62;0.00;0.00;0.62;3.20;2.27;;;18.30;20.50;;;;;;2264733;61;20793;-55
2024/01/20 06:08:03;0.00;0.00;0.62;0.00;0.00;0.62;3.10;2.37;;;18.20;20.40;;;;;;2269101;61;20439;-57
2024/01/20 06:10:47;0.00;0.00;0.62;0.00;0.00;0.62;3.07;2.40;;;18.30;20.40;;;;;;2268967;61;20443;-56
2024/01/20 06:13:33;0.00;0.00;0.62;0.00;0.00;0.62;3.07;2.37;;;18.30;20.40;;;;;;2268848;61;20428;-57
2024/01/20 06:16:18;0.00;0.00;0.62;0.00;0.00;0.62;2.70;2.20;;;18.30;20.40;;;;;;2268862;61;20371;-57
2024/01/20 06:19:03;0.00;0.00;0.62;0.00;0.00;0.62;2.63;2.30;;;18.20;20.40;;;;;;2268919;61;20389;-55
2024/01/20 06:21:47;0.00;0.00;0.62;0.00;0.00;0.62;2.90;2.17;;;18.20;20.40;;;;;;2268656;61;20374;-52
2024/01/20 06:24:32;0.00;0.00;0.62;0.00;0.00;0.62;2.70;2.10;;;18.20;20.40;;;;;;2269153;61;20428;-51
2024/01/20 06:27:16;0.00;0.00;0.62;0.00;0.00;0.62;2.93;1.83;;;18.20;20.40;;;;;;2268886;61;20355;-53
2024/01/20 06:30:03;0.00;0.00;0.62;0.00;0.00;0.62;2.53;2.27;;;18.20;20.40;;;;;;2269024;61;20386;-58
2024/01/20 06:32:48;0.00;0.00;0.62;0.00;0.00;0.62;3.27;2.33;;;18.20;20.40;;;;;;2268898;61;20371;-57
2024/01/20 06:35:33;0.00;0.00;0.62;0.00;0.00;0.62;3.30;2.27;;;18.20;20.40;;;;;;2268905;61;20444;-57
2024/01/20 06:38:17;0.00;0.00;0.62;0.00;0.00;0.62;3.80;2.73;;;18.20;20.40;;;;;;2268967;61;20443;-55
2024/01/20 06:41:02;0.00;0.00;0.62;0.00;0.00;0.62;3.10;2.50;;;18.20;20.40;;;;;;2268933;61;20351;-52
2024/01/20 06:43:46;0.00;0.00;0.62;0.00;0.00;0.62;2.33;2.13;;;18.20;20.40;;;;;;2268830;61;20529;-56
2024/01/20 06:46:32;0.00;0.00;0.62;0.00;0.00;0.62;3.30;2.77;;;18.20;20.40;;;;;;2269325;61;20363;-54
2024/01/20 06:49:17;0.00;0.00;0.62;0.00;0.00;0.62;2.70;2.17;;;18.20;20.40;;;;;;2268714;61;20391;-55
2024/01/20 06:52:02;0.00;0.00;0.62;0.00;0.00;0.62;3.23;2.60;;;18.20;20.40;;;;;;2268787;61;20412;-55
2024/01/20 06:54:48;0.00;0.00;0.62;0.00;0.00;0.62;2.67;2.10;;;18.20;20.40;;;;;;2269122;61;20950;-53
2024/01/20 06:57:33;0.00;0.00;0.62;0.00;0.00;0.62;3.67;3.13;;;18.20;20.40;;;;;;2268923;61;20435;-57
2024/01/20 07:00:18;0.00;0.00;0.62;0.00;0.00;0.62;2.93;2.00;;;18.20;20.40;;;;;;2268778;61;20582;-53
2024/01/20 07:03:04;0.00;0.00;0.62;0.00;0.00;0.62;3.10;2.10;;;18.20;20.40;;;;;;2268679;61;20386;-55
2024/01/20 07:05:49;0.00;0.00;0.62;0.00;0.00;0.62;3.53;2.13;;;18.20;20.40;;;;;;2269199;61;20395;-58
2024/01/20 07:08:34;0.00;0.00;0.62;0.00;0.00;0.62;4.17;2.90;;;18.20;20.40;;;;;;2268987;61;20464;-55
2024/01/20 07:11:18;0.00;0.00;0.62;0.00;0.00;0.62;2.90;2.30;;;18.20;20.40;;;;;;2268690;61;20386;-56
2024/01/20 07:14:03;0.00;0.00;0.62;0.00;0.00;0.62;3.20;2.53;;;18.20;20.40;;;;;;2268772;61;20394;-57
2024/01/20 07:16:47;0.00;0.00;0.62;0.00;0.00;0.62;3.10;2.33;;;18.20;20.40;;;;;;2268673;61;20437;-55
2024/01/20 07:19:33;0.00;0.00;0.62;0.00;0.00;0.62;3.33;2.10;;;18.20;20.40;;;;;;2268587;61;20367;-57
2024/01/20 07:22:18;0.00;0.00;0.62;0.00;0.00;0.62;2.93;2.23;;;18.20;20.40;;;;;;2268454;61;20394;-53
2024/01/20 07:25:04;0.00;0.00;0.62;0.00;0.00;0.62;3.90;2.63;;;18.20;20.40;;;;;;2268865;61;20418;-55
2024/01/20 07:27:49;0.00;0.00;0.62;0.00;0.00;0.62;3.43;2.57;;;18.20;20.40;;;;;;2268952;61;20771;-57
2024/01/20 07:30:34;0.00;0.00;0.62;0.00;0.00;0.62;3.40;2.77;;;18.20;20.40;;;;;;2268777;61;20832;-53
2024/01/20 07:33:20;0.00;0.00;0.62;0.00;0.00;0.62;3.13;2.53;;;18.20;20.40;;;;;;2265263;61;20366;-56
2024/01/20 07:36:07;0.00;0.00;0.62;0.00;0.00;0.62;3.53;2.57;;;18.20;20.40;;;;;;2265637;61;20401;-54
2024/01/20 07:38:51;0.00;0.00;0.62;0.00;0.00;0.62;3.30;2.67;;;18.20;20.40;;;;;;2268868;61;20359;-56
2024/01/20 07:41:36;0.00;0.00;0.62;0.00;0.00;0.62;3.40;2.77;;;18.20;20.40;;;;;;2265305;61;20371;-58
2024/01/20 07:44:21;0.00;0.00;0.62;0.00;0.00;0.62;3.33;2.77;;;18.20;20.40;;;;;;2268820;61;20378;-56
2024/01/20 07:47:06;0.00;0.00;0.62;0.00;0.00;0.62;3.57;2.60;;;18.20;20.40;;;;;;2268958;61;20743;-56
2024/01/20 07:49:51;0.00;0.00;0.62;0.00;0.00;0.62;3.40;2.80;;;18.20;20.40;;;;;;2268810;61;20433;-58
2024/01/20 07:52:38;0.00;0.00;0.62;0.00;0.00;0.62;4.07;2.57;;;18.20;20.40;;;;;;2268457;61;20359;-56
2024/01/20 07:55:23;0.00;0.00;0.62;0.00;0.00;0.62;3.93;2.57;;;18.10;20.30;;;;;;2268361;61;20426;-56
2024/01/20 07:58:07;0.00;0.00;0.62;0.00;0.00;0.62;3.87;3.00;;;18.10;20.30;;;;;;2268857;61;20402;-52
2024/01/20 08:00:52;0.00;0.00;0.62;0.00;0.00;0.62;3.67;2.50;;;18.10;20.30;;;;;;2268767;61;20359;-52
2024/01/20 08:03:37;0.00;0.00;0.62;0.00;0.00;0.62;3.20;2.60;;;18.10;20.30;;;;;;2268311;61;20383;-56
2024/01/20 08:06:22;0.00;0.00;0.62;0.00;0.00;0.62;3.40;2.67;;;18.10;20.30;;;;;;2268493;61;20367;-54
2024/01/20 08:09:10;0.00;0.00;0.62;0.00;0.00;0.62;3.73;2.70;;;18.10;20.30;;;;;;2268685;61;20394;-53
2024/01/20 08:11:54;0.00;0.00;0.62;0.00;0.00;0.62;3.80;3.00;;;18.10;20.30;;;;;;2268230;61;20785;-53
2024/01/20 08:14:39;0.00;0.00;0.62;0.00;0.00;0.62;3.43;2.90;;;18.10;20.30;;;;;;2268812;61;20445;-55
2024/01/20 08:17:23;0.00;0.00;0.62;0.00;0.00;0.62;5.20;2.93;;;18.10;20.30;;;;;;2268516;61;20359;-52
2024/01/20 08:20:10;0.00;0.00;0.62;0.00;0.00;0.62;4.97;2.90;;;18.10;20.30;;;;;;2268755;61;20403;-57
2024/01/20 08:22:55;0.00;0.00;0.62;0.00;0.00;0.62;5.07;3.37;;;18.10;20.30;;;;;;2268134;61;20918;-57
2024/01/20 08:25:41;0.00;0.00;0.62;0.00;0.00;0.62;5.20;3.10;;;18.10;20.30;;;;;;2268566;61;20413;-56
2024/01/20 08:28:26;0.00;0.00;0.62;0.00;0.00;0.62;3.30;2.57;;;18.10;20.30;;;;;;2268454;61;20374;-51
2024/01/20 08:31:10;0.00;0.00;0.62;0.00;0.00;0.62;3.10;2.33;;;18.10;20.30;;;;;;2268313;61;20842;-57
2024/01/20 08:33:55;0.00;0.00;0.62;0.00;0.00;0.62;3.40;2.73;;;18.10;20.40;;;;;;2268092;61;20387;-52
2024/01/20 08:36:39;0.00;0.00;0.62;0.00;0.00;0.62;4.40;2.90;;;18.10;20.30;;;;;;2268726;61;20413;-53
2024/01/20 08:39:24;0.00;0.00;0.62;0.00;0.00;0.62;3.30;2.80;;;18.10;20.30;;;;;;2268516;61;20864;-59
2024/01/20 08:42:10;0.00;0.00;0.62;0.00;0.00;0.62;3.37;2.20;;;18.10;20.30;;;;;;2268257;61;20359;-53
2024/01/20 08:44:54;0.00;0.00;0.62;0.00;0.00;0.62;4.33;2.80;;;18.10;20.30;;;;;;2268700;61;20379;-55
2024/01/20 08:47:39;0.00;0.00;0.62;0.00;0.00;0.62;3.00;2.70;;;18.10;20.30;;;;;;2268408;61;20387;-57
2024/01/20 08:50:24;0.00;0.00;0.62;0.00;0.00;0.62;4.40;3.10;;;18.10;20.40;;;;;;2268633;61;20421;-56
2024/01/20 08:53:08;0.00;0.00;0.62;0.00;0.00;0.62;3.80;2.67;;;18.10;20.40;;;;;;2268333;61;20921;-56
2024/01/20 08:55:53;0.00;0.00;0.62;0.00;0.00;0.62;3.90;2.93;;;18.10;20.40;;;;;;2265247;61;20379;-54
2024/01/20 08:58:39;0.00;0.00;0.62;0.00;0.00;0.62;6.93;4.07;;;18.10;21.00;;;;;;2265445;61;20364;-54
2024/01/20 09:01:23;0.00;0.00;0.62;0.00;0.00;0.62;6.93;3.20;;;18.10;20.40;;;;;;2268391;61;20793;-55
2024/01/20 09:04:08;0.00;0.00;0.62;0.00;0.00;0.62;4.80;3.63;;;18.10;20.50;;;;;;2268325;61;20798;-57
2024/01/20 09:06:52;0.00;0.00;0.62;0.00;0.00;0.62;4.73;3.30;;;18.10;20.50;;;;;;2268568;61;20355;-53
2024/01/20 09:09:37;0.00;0.00;0.62;0.00;0.00;0.62;5.60;4.13;;;18.20;20.60;;;;;;2268499;61;20390;-54
2024/01/20 09:12:21;0.00;0.00;0.62;0.00;0.00;0.62;5.20;4.30;;;18.20;20.60;;;;;;2268113;61;20812;-54
2024/01/20 09:15:08;0.00;0.00;0.62;0.00;0.00;0.62;5.30;4.17;;;18.20;20.70;;;;;;2268716;61;20784;-56
2024/01/20 09:17:53;0.00;0.00;0.62;0.00;0.00;0.62;5.93;4.53;;;18.20;20.70;;;;;;2268387;61;20447;-59
2024/01/20 09:20:38;0.00;0.00;0.62;0.00;0.00;0.62;6.07;4.77;;;18.20;20.70;;;;;;2268748;61;20443;-52
2024/01/20 09:23:22;0.00;0.00;0.62;0.00;0.00;0.62;6.10;4.40;;;18.20;20.70;;;;;;2268227;61;20771;-55
2024/01/20 09:26:07;0.00;0.00;0.62;0.00;0.00;0.62;7.70;5.60;;;18.20;20.70;;;;;;2268550;61;20450;-52
2024/01/20 09:28:51;0.00;0.00;0.62;0.00;0.00;0.62;5.90;4.30;;;18.20;20.70;;;;;;2268405;61;20390;-56
2024/01/20 09:31:37;0.00;0.00;0.62;0.00;0.00;0.62;6.87;5.23;;;18.20;20.70;;;;;;2268073;61;20355;-53
2024/01/20 09:34:22;0.00;0.00;0.62;0.00;0.00;0.62;6.67;5.43;;;18.20;20.80;;;;;;2268276;61;20534;-56
2024/01/20 09:37:07;0.00;0.00;0.62;0.00;0.00;0.62;5.37;4.53;;;18.20;20.70;;;;;;2268542;61;20930;-53
2024/01/20 09:39:51;0.00;0.00;0.62;0.00;0.00;0.62;5.30;4.67;;;18.30;20.80;;;;;;2268243;61;20371;-56
2024/01/20 09:42:36;0.00;0.00;0.62;0.00;0.00;0.62;6.37;5.03;;;18.30;20.80;;;;;;2268367;61;20362;-57
2024/01/20 09:45:22;0.00;0.00;0.62;0.00;0.00;0.62;7.90;6.23;;;18.30;20.80;;;;;;2277973;48;20537;-52
2024/01/20 09:48:08;0.00;0.00;0.62;0.00;0.00;0.62;7.20;5.60;;;18.30;20.80;;;;;;2268379;61;20375;-54
2024/01/20 09:50:53;0.00;0.00;0.62;0.00;0.00;0.62;7.57;5.60;;;18.30;20.90;;;;;;2268417;61;20391;-57
2024/01/20 09:53:39;0.00;0.00;0.62;0.00;0.00;0.62;6.67;5.27;;;18.30;20.90;;;;;;2268080;61;20386;-55
2024/01/20 09:56:24;0.00;0.00;0.62;0.00;0.00;0.62;8.37;5.10;;;18.30;20.90;;;;;;2268386;61;20359;-56
2024/01/20 09:59:11;0.00;0.00;0.62;0.00;0.00;0.62;6.37;5.50;;;18.30;20.90;;;;;;2268418;61;20409;-56
2024/01/20 10:01:56;0.00;0.00;0.62;0.00;0.00;0.62;7.30;6.30;;;18.30;20.90;;;;;;2268346;61;21003;-57
2024/01/20 10:04:46;0.00;0.00;0.62;0.00;0.00;0.62;8.67;6.30;;;18.40;21.00;;;;;;2269238;61;20421;-56
2024/01/20 10:07:31;0.00;0.00;0.62;0.00;0.00;0.62;7.27;5.40;;;18.40;21.00;;;;;;2269297;61;20363;-57
2024/01/20 10:10:20;0.00;0.00;0.62;0.00;0.00;0.62;11.43;6.57;;;18.40;21.00;;;;;;2268907;61;20390;-59
2024/01/20 10:13:05;0.00;0.00;0.62;0.00;0.00;0.62;6.80;5.30;;;18.40;21.10;;;;;;2268572;61;20363;-55
2024/01/20 10:15:50;0.00;0.00;0.62;0.00;0.00;0.62;6.67;5.97;;;18.40;21.10;;;;;;2269249;61;20389;-58
2024/01/20 10:18:35;0.00;0.00;0.62;0.00;0.00;0.62;7.10;5.67;;;18.40;21.10;;;;;;2269281;61;20444;-56
2024/01/20 10:21:21;0.00;0.00;0.62;0.00;0.00;0.62;10.73;5.80;;;18.40;21.10;;;;;;2269119;61;20363;-58
2024/01/20 10:24:06;0.00;0.00;0.62;0.00;0.00;0.62;10.97;7.10;;;18.50;21.20;;;;;;2268751;61;20394;-55
2024/01/20 10:26:52;0.00;0.00;0.62;0.00;0.00;0.62;8.10;5.93;;;18.50;21.20;;;;;;2269047;61;20422;-54
2024/01/20 10:29:37;0.00;0.00;0.62;0.00;0.00;0.62;7.93;6.37;;;18.50;21.20;;;;;;2268919;61;20382;-58
2024/01/20 10:32:22;0.00;0.00;0.62;0.00;0.00;0.62;8.70;5.90;;;18.50;21.20;;;;;;2268580;61;20395;-55
2024/01/20 10:35:08;0.00;0.00;0.62;0.00;0.00;0.62;8.53;6.37;;;18.50;21.20;;;;;;2265945;61;20382;-56
2024/01/20 10:37:59;0.00;0.00;0.62;0.00;0.00;0.62;7.07;6.13;;;18.50;21.20;;;;;;2268939;61;20363;-58
2024/01/20 10:40:49;0.00;0.00;0.62;0.00;0.00;0.62;8.40;6.80;;;18.60;21.20;;;;;;2268763;61;20391;-56
2024/01/20 10:43:39;0.00;0.00;0.62;0.00;0.00;0.62;8.17;6.67;;;18.60;21.30;;;;;;2268667;61;20378;-55
2024/01/20 10:46:29;0.00;0.00;0.62;0.00;0.00;0.62;7.73;6.20;;;18.60;21.20;;;;;;2268778;61;20359;-54
2024/01/20 10:49:19;0.00;0.00;0.62;0.00;0.00;0.62;8.50;6.50;;;18.60;21.20;;;;;;2269312;61;20383;-53
2024/01/20 10:52:05;0.00;0.00;0.62;0.00;0.00;0.62;7.43;6.40;;;18.60;21.30;;;;;;2269262;61;20432;-55